createdAt,value
2019-03-17T00:02:27.048Z,99753.66
2019-03-17T00:04:58.742Z,99755.02
2019-03-17T00:07:30.227Z,99759.05
2019-03-17T00:10:01.757Z,99746.72
2019-03-17T00:12:33.454Z,99744.76
2019-03-17T00:15:06.598Z,99747.23
2019-03-17T00:17:38.462Z,99752.83
2019-03-17T00:20:10.033Z,99750.77
2019-03-17T00:22:41.533Z,99748.02
2019-03-17T00:25:13.035Z,99742.09
2019-03-17T00:27:44.542Z,99737.10
2019-03-17T00:30:16.054Z,99732.05
2019-03-17T00:32:47.638Z,99738.45
2019-03-17T00:35:19.224Z,99734.97
2019-03-17T00:37:50.765Z,99733.23
2019-03-17T00:40:22.308Z,99732.28
2019-03-17T00:42:53.884Z,99737.77
2019-03-17T00:45:25.421Z,99733.41
2019-03-17T00:47:56.911Z,99732.22
2019-03-17T00:50:28.430Z,99717.83
2019-03-17T00:52:59.989Z,99721.63
2019-03-17T00:55:31.579Z,99715.07
2019-03-17T00:58:03.098Z,99710.87
2019-03-17T01:00:34.609Z,99716.34
2019-03-17T01:03:06.144Z,99710.97
2019-03-17T01:05:37.661Z,99709.63
2019-03-17T01:08:09.228Z,99709.13
2019-03-17T01:10:40.730Z,99709.06
2019-03-17T01:13:12.246Z,99695.77
2019-03-17T01:15:43.731Z,99704.47
2019-03-17T01:18:15.243Z,99704.40
2019-03-17T01:20:46.736Z,99703.58
2019-03-17T01:23:18.322Z,99703.28
2019-03-17T01:25:49.907Z,99695.28
2019-03-17T01:28:21.441Z,99691.41
2019-03-17T01:30:52.986Z,99692.19
2019-03-17T01:33:24.584Z,99687.59
2019-03-17T01:35:56.103Z,99686.42
2019-03-17T01:38:27.787Z,99688.94
2019-03-17T01:40:59.255Z,99681.14
2019-03-17T01:43:30.834Z,99675.27
2019-03-17T01:46:02.381Z,99679.53
2019-03-17T01:48:33.893Z,99682.39
2019-03-17T01:51:05.380Z,99672.02
2019-03-17T01:53:36.911Z,99674.31
2019-03-17T01:56:08.438Z,99668.72
2019-03-17T01:58:40.016Z,99672.52
2019-03-17T02:01:11.999Z,99666.98
2019-03-17T02:03:43.727Z,99674.66
2019-03-17T02:06:15.221Z,99674.40
2019-03-17T02:08:46.768Z,99673.31
2019-03-17T02:11:18.273Z,99673.47
2019-03-17T02:13:49.870Z,99679.53
2019-03-17T02:16:21.443Z,99677.12
2019-03-17T02:18:52.962Z,99679.43
2019-03-17T02:21:24.475Z,99671.78
2019-03-17T02:23:56.043Z,99668.55
2019-03-17T02:26:27.556Z,99663.49
2019-03-17T02:28:59.048Z,99663.23
2019-03-17T02:31:30.577Z,99656.66
2019-03-17T02:34:02.114Z,99662.22
2019-03-17T02:36:33.740Z,99654.14
2019-03-17T02:39:06.454Z,99645.30
2019-03-17T02:41:38.390Z,99649.33
2019-03-17T02:44:09.974Z,99652.75
2019-03-17T02:46:41.478Z,99651.41
2019-03-17T02:49:13.023Z,99648.55
2019-03-17T02:51:44.533Z,99638.73
2019-03-17T02:54:16.140Z,99643.16
2019-03-17T02:56:47.735Z,99640.54
2019-03-17T02:59:19.221Z,99639.20
2019-03-17T03:01:50.733Z,99640.08
2019-03-17T03:04:22.389Z,99642.21
2019-03-17T03:06:53.906Z,99644.34
2019-03-17T03:09:25.429Z,99640.38
2019-03-17T03:11:56.930Z,99640.93
2019-03-17T03:14:28.493Z,99640.47
2019-03-17T03:17:00.071Z,99643.64
2019-03-17T03:19:31.582Z,99643.38
2019-03-17T03:22:03.160Z,99635.25
2019-03-17T03:24:34.669Z,99636.66
2019-03-17T03:27:06.195Z,99633.75
2019-03-17T03:29:37.773Z,99635.87
2019-03-17T03:32:09.259Z,99634.53
2019-03-17T03:34:42.820Z,99637.95
2019-03-17T03:37:14.330Z,99633.36
2019-03-17T03:39:45.939Z,99620.30
2019-03-17T03:42:17.437Z,99624.73
2019-03-17T03:44:48.942Z,99621.33
2019-03-17T03:47:23.141Z,99626.14
2019-03-17T03:49:57.186Z,99623.84
2019-03-17T03:52:28.053Z,99626.39
2019-03-17T03:54:59.614Z,99624.23
2019-03-17T03:57:31.118Z,99618.63
2019-03-17T04:00:02.653Z,99610.24
2019-03-17T04:02:34.226Z,99612.69
2019-03-17T04:05:07.625Z,99609.86
2019-03-17T04:07:39.139Z,99612.63
2019-03-17T04:10:11.468Z,99609.29
2019-03-17T04:12:42.958Z,99606.45
2019-03-17T04:15:15.161Z,99601.48
2019-03-17T04:17:46.727Z,99599.88
2019-03-17T04:20:18.231Z,99598.47
2019-03-17T04:22:49.751Z,99602.34
2019-03-17T04:25:21.251Z,99599.02
2019-03-17T04:27:52.735Z,99590.98
2019-03-17T04:30:24.223Z,99589.64
2019-03-17T04:32:55.770Z,99587.47
2019-03-17T04:35:27.340Z,99581.70
2019-03-17T04:37:58.974Z,99582.91
2019-03-17T04:40:30.556Z,99581.00
2019-03-17T04:43:02.036Z,99573.81
2019-03-17T04:45:33.620Z,99578.48
2019-03-17T04:48:05.115Z,99579.90
2019-03-17T04:50:36.604Z,99573.25
2019-03-17T04:53:08.097Z,99570.64
2019-03-17T04:55:39.604Z,99575.38
2019-03-17T04:58:11.128Z,99575.95
2019-03-17T05:00:42.635Z,99565.48
2019-03-17T05:03:14.201Z,99563.18
2019-03-17T05:05:45.716Z,99572.91
2019-03-17T05:08:17.292Z,99567.21
2019-03-17T05:10:48.865Z,99562.23
2019-03-17T05:13:20.348Z,99560.59
2019-03-17T05:15:51.874Z,99553.16
2019-03-17T05:18:23.398Z,99551.25
2019-03-17T05:20:55.507Z,99542.23
2019-03-17T05:23:28.085Z,99544.28
2019-03-17T05:25:59.599Z,99540.08
2019-03-17T05:28:31.104Z,99542.20
2019-03-17T05:31:02.628Z,99540.89
2019-03-17T05:33:34.221Z,99537.77
2019-03-17T05:36:05.792Z,99533.73
2019-03-17T05:38:37.339Z,99533.42
2019-03-17T05:41:08.939Z,99534.38
2019-03-17T05:43:40.422Z,99540.72
2019-03-17T05:46:11.980Z,99540.92
2019-03-17T05:48:43.567Z,99521.95
2019-03-17T05:51:15.114Z,99520.99
2019-03-17T05:53:46.677Z,99519.47
2019-03-17T05:56:18.260Z,99514.41
2019-03-17T05:58:49.847Z,99519.67
2019-03-17T06:01:21.340Z,99521.13
2019-03-17T06:03:52.918Z,99522.16
2019-03-17T06:06:24.417Z,99526.02
2019-03-17T06:08:55.934Z,99525.58
2019-03-17T06:11:27.519Z,99522.44
2019-03-17T06:13:59.036Z,99519.64
2019-03-17T06:16:30.531Z,99521.95
2019-03-17T06:19:02.038Z,99526.87
2019-03-17T06:21:33.556Z,99521.41
2019-03-17T06:24:05.088Z,99525.86
2019-03-17T06:26:36.673Z,99516.10
2019-03-17T06:29:08.183Z,99517.39
2019-03-17T06:31:39.776Z,99520.25
2019-03-17T06:34:11.360Z,99512.85
2019-03-17T06:36:42.855Z,99506.95
2019-03-17T06:39:14.507Z,99496.28
2019-03-17T06:41:46.037Z,99494.36
2019-03-17T06:44:32.408Z,99486.06
2019-03-17T06:47:05.912Z,99487.52
2019-03-17T06:49:37.312Z,99481.06
2019-03-17T06:52:09.066Z,99482.42
2019-03-17T06:54:40.808Z,99490.31
2019-03-17T06:57:12.363Z,99483.00
2019-03-17T06:59:44.207Z,99489.36
2019-03-17T07:02:16.397Z,99487.70
2019-03-17T07:04:48.005Z,99486.25
2019-03-17T07:07:19.619Z,99488.75
2019-03-17T07:09:51.293Z,99479.86
2019-03-17T07:12:23.255Z,99480.48
2019-03-17T07:14:54.920Z,99478.19
2019-03-17T07:17:28.066Z,99477.05
2019-03-17T07:19:59.711Z,99478.94
2019-03-17T07:22:31.626Z,99471.21
2019-03-17T07:25:03.179Z,99474.52
2019-03-17T07:27:34.685Z,99467.20
2019-03-17T07:30:15.711Z,99461.59
2019-03-17T07:32:47.311Z,99456.92
2019-03-17T07:35:18.962Z,99465.16
2019-03-17T07:37:56.608Z,99462.65
2019-03-17T07:40:23.888Z,99458.72
2019-03-17T07:42:55.664Z,99460.63
2019-03-17T07:45:27.472Z,99463.20
2019-03-17T07:47:59.230Z,99456.20
2019-03-17T07:50:30.916Z,99463.28
2019-03-17T07:53:03.849Z,99455.73
2019-03-17T07:55:35.350Z,99458.28
2019-03-17T07:58:06.933Z,99456.56
2019-03-17T08:00:38.578Z,99452.47
2019-03-17T08:03:10.233Z,99450.25
2019-03-17T08:05:41.831Z,99454.37
2019-03-17T08:08:13.441Z,99444.50
2019-03-17T08:10:45.170Z,99459.52
2019-03-17T08:13:16.890Z,99448.04
2019-03-17T08:15:48.616Z,99456.45
2019-03-17T08:18:21.890Z,99440.95
2019-03-17T08:20:53.720Z,99426.89
2019-03-17T08:23:25.343Z,99428.84
2019-03-17T08:25:57.188Z,99423.90
2019-03-17T08:28:33.973Z,99426.63
2019-03-17T08:31:05.623Z,99421.17
2019-03-17T08:33:38.943Z,99413.67
2019-03-17T08:36:10.584Z,99423.40
2019-03-17T08:38:42.265Z,99427.64
2019-03-17T08:41:13.947Z,99433.19
2019-03-17T08:43:54.227Z,99435.46
2019-03-17T08:46:18.742Z,99439.77
2019-03-17T08:48:50.443Z,99440.75
2019-03-17T08:51:22.417Z,99438.81
2019-03-17T08:53:53.946Z,99425.06
2019-03-17T08:56:25.743Z,99438.61
2019-03-17T08:58:57.684Z,99431.03
2019-03-17T09:01:29.286Z,99436.48
2019-03-17T09:04:00.956Z,99439.15
2019-03-17T09:06:32.479Z,99427.43
2019-03-17T09:09:05.976Z,99433.28
2019-03-17T09:11:37.516Z,99421.22
2019-03-17T09:14:09.263Z,99425.03
2019-03-17T09:16:40.925Z,99412.56
2019-03-17T09:19:12.762Z,99407.50
2019-03-17T09:21:44.501Z,99412.45
2019-03-17T09:24:17.503Z,99408.37
2019-03-17T09:26:49.289Z,99406.84
2019-03-17T09:29:20.830Z,99402.66
2019-03-17T09:31:52.580Z,99411.89
2019-03-17T09:34:24.124Z,99406.11
2019-03-17T09:36:55.668Z,99401.19
2019-03-17T09:39:27.386Z,99402.58
2019-03-17T09:41:59.030Z,99389.50
2019-03-17T09:44:30.773Z,99387.44
2019-03-17T09:47:02.491Z,99382.84
2019-03-17T09:49:35.145Z,99375.67
2019-03-17T09:52:06.786Z,99381.48
2019-03-17T09:54:38.314Z,99384.35
2019-03-17T09:57:09.957Z,99379.62
2019-03-17T09:59:41.616Z,99383.49
2019-03-17T10:02:13.212Z,99368.45
2019-03-17T10:04:44.997Z,99373.42
2019-03-17T10:07:16.666Z,99368.78
2019-03-17T10:09:48.303Z,99371.94
2019-03-17T10:12:19.907Z,99365.77
2019-03-17T10:14:51.889Z,99366.02
2019-03-17T10:17:23.772Z,99364.66
2019-03-17T10:19:55.551Z,99359.10
2019-03-17T10:22:27.290Z,99362.46
2019-03-17T10:24:59.001Z,99353.19
2019-03-17T10:27:30.665Z,99355.68
2019-03-17T10:30:02.194Z,99361.56
2019-03-17T10:32:33.933Z,99351.17
2019-03-17T10:35:06.149Z,99355.39
2019-03-17T10:37:37.751Z,99349.56
2019-03-17T10:40:15.217Z,99369.08
2019-03-17T10:42:46.859Z,99355.90
2019-03-17T10:45:19.562Z,99369.00
2019-03-17T10:47:54.259Z,99364.30
2019-03-17T10:50:24.647Z,99367.38
2019-03-17T10:52:56.246Z,99375.17
2019-03-17T10:55:28.591Z,99380.12
2019-03-17T10:58:00.229Z,99363.55
2019-03-17T11:00:31.927Z,99369.41
2019-03-17T11:03:03.552Z,99364.62
2019-03-17T11:05:35.139Z,99366.35
2019-03-17T11:08:06.883Z,99351.02
2019-03-17T11:10:38.390Z,99351.47
2019-03-17T11:13:10.170Z,99349.89
2019-03-17T11:15:42.122Z,99348.25
2019-03-17T11:18:13.712Z,99339.67
2019-03-17T11:20:45.265Z,99337.33
2019-03-17T11:23:18.617Z,99343.00
2019-03-17T11:25:50.264Z,99340.78
2019-03-17T11:28:21.863Z,99347.23
2019-03-17T11:30:58.400Z,99336.95
2019-03-17T11:33:29.966Z,99330.16
2019-03-17T11:36:01.632Z,99324.33
2019-03-17T11:38:35.604Z,99310.64
2019-03-17T11:41:07.397Z,99317.19
2019-03-17T11:43:40.614Z,99324.47
2019-03-17T11:46:12.313Z,99322.37
2019-03-17T11:48:44.028Z,99317.70
2019-03-17T11:51:15.771Z,99319.67
2019-03-17T11:53:47.903Z,99326.47
2019-03-17T11:56:19.479Z,99320.11
2019-03-17T11:58:51.167Z,99323.46
2019-03-17T12:01:22.778Z,99326.91
2019-03-17T12:03:56.771Z,99323.05
2019-03-17T12:06:28.697Z,99326.05
2019-03-17T12:09:04.442Z,99332.70
2019-03-17T12:11:36.197Z,99332.11
2019-03-17T12:14:09.908Z,99333.01
2019-03-17T12:16:41.164Z,99326.95
2019-03-17T12:19:12.783Z,99327.05
2019-03-17T12:21:46.072Z,99325.20
2019-03-17T12:24:18.130Z,99314.81
2019-03-17T12:26:52.168Z,99306.67
2019-03-17T12:29:24.953Z,99310.23
2019-03-17T12:32:01.832Z,99295.62
2019-03-17T12:34:37.923Z,99299.31
2019-03-17T12:37:11.031Z,99303.30
2019-03-17T12:39:42.765Z,99297.59
2019-03-17T12:42:14.474Z,99312.66
2019-03-17T12:44:46.136Z,99299.77
2019-03-17T12:47:17.736Z,99306.42
2019-03-17T12:49:49.262Z,99314.85
2019-03-17T12:52:20.810Z,99317.93
2019-03-17T12:54:52.411Z,99319.41
2019-03-17T12:57:23.933Z,99313.63
2019-03-17T12:59:55.585Z,99310.19
2019-03-17T13:02:27.353Z,99309.46
2019-03-17T13:04:59.143Z,99304.97
2019-03-17T13:07:33.788Z,99300.26
2019-03-17T13:10:15.507Z,99306.42
2019-03-17T13:12:43.674Z,99301.64
2019-03-17T13:15:15.895Z,99296.09
2019-03-17T13:17:47.536Z,99304.24
2019-03-17T13:20:22.102Z,99299.71
2019-03-17T13:22:56.179Z,99296.03
2019-03-17T13:25:29.577Z,99288.59
2019-03-17T13:28:01.840Z,99290.41
2019-03-17T13:30:33.395Z,99290.13
2019-03-17T13:33:05.143Z,99289.77
2019-03-17T13:35:37.744Z,99283.27
2019-03-17T13:38:09.641Z,99287.60
2019-03-17T13:40:42.842Z,99287.81
2019-03-17T13:43:15.020Z,99289.67
2019-03-17T13:45:46.596Z,99292.23
2019-03-17T13:48:18.357Z,99291.77
2019-03-17T13:50:50.077Z,99287.99
2019-03-17T13:53:22.967Z,99284.70
2019-03-17T13:56:02.426Z,99284.64
2019-03-17T13:58:34.004Z,99283.19
2019-03-17T14:01:05.821Z,99290.48
2019-03-17T14:03:37.594Z,99285.91
2019-03-17T14:06:09.327Z,99282.36
2019-03-17T14:08:40.971Z,99277.07
2019-03-17T14:11:12.587Z,99278.16
2019-03-17T14:13:44.203Z,99278.16
2019-03-17T14:16:16.014Z,99270.67
2019-03-17T14:18:47.588Z,99272.88
2019-03-17T14:21:19.550Z,99276.83
2019-03-17T14:23:51.074Z,99279.20
2019-03-17T14:26:22.745Z,99287.60
2019-03-17T14:28:54.487Z,99281.44
2019-03-17T14:31:26.040Z,99288.91
2019-03-17T14:33:57.625Z,99296.78
2019-03-17T14:36:29.159Z,99291.98
2019-03-17T14:39:00.682Z,99304.58
2019-03-17T14:41:34.040Z,99308.30
2019-03-17T14:44:05.713Z,99313.83
2019-03-17T14:46:37.226Z,99310.53
2019-03-17T14:49:08.767Z,99308.50
2019-03-17T14:51:54.409Z,99313.36
2019-03-17T14:54:28.435Z,99324.53
2019-03-17T14:56:59.962Z,99325.19
2019-03-17T14:59:31.497Z,99326.08
2019-03-17T15:02:03.489Z,99334.81
2019-03-17T15:04:35.117Z,99327.05
2019-03-17T15:07:07.337Z,99326.66
2019-03-17T15:09:39.073Z,99306.06
2019-03-17T15:12:10.659Z,99301.96
2019-03-17T15:14:42.431Z,99288.95
2019-03-17T15:17:15.095Z,99287.48
2019-03-17T15:19:47.060Z,99281.98
2019-03-17T15:22:18.690Z,99284.70
2019-03-17T15:24:50.233Z,99288.53
2019-03-17T15:27:21.806Z,99299.53
2019-03-17T15:29:53.317Z,99301.16
2019-03-17T15:32:24.957Z,99291.91
2019-03-17T15:34:56.484Z,99301.69
2019-03-17T15:37:28.005Z,99304.25
2019-03-17T15:40:00.263Z,99302.78
2019-03-17T15:42:31.875Z,99299.55
2019-03-17T15:45:03.402Z,99307.23
2019-03-17T15:47:36.973Z,99303.64
2019-03-17T15:50:15.473Z,99293.17
2019-03-17T15:52:48.146Z,99302.16
2019-03-17T15:55:19.761Z,99297.23
2019-03-17T15:57:51.286Z,99301.17
2019-03-17T16:00:25.926Z,99294.55
2019-03-17T16:02:57.165Z,99298.00
2019-03-17T16:05:28.791Z,99297.27
2019-03-17T16:08:00.692Z,99297.27
2019-03-17T16:10:33.134Z,99293.56
2019-03-17T16:13:04.705Z,99294.92
2019-03-17T16:15:36.235Z,99293.80
2019-03-17T16:18:07.869Z,99295.67
2019-03-17T16:20:39.450Z,99309.52
2019-03-17T16:23:11.171Z,99310.00
2019-03-17T16:25:42.693Z,99308.03
2019-03-17T16:28:14.354Z,99315.80
2019-03-17T16:30:45.884Z,99328.39
2019-03-17T16:33:17.480Z,99326.92
2019-03-17T16:35:49.022Z,99338.77
2019-03-17T16:38:20.531Z,99341.85
2019-03-17T16:40:52.069Z,99342.70
2019-03-17T16:43:23.782Z,99351.61
2019-03-17T16:45:55.295Z,99356.78
2019-03-17T16:48:26.959Z,99357.03
2019-03-17T16:50:58.553Z,99366.28
2019-03-17T16:53:30.234Z,99359.97
2019-03-17T16:56:01.958Z,99377.97
2019-03-17T16:58:33.566Z,99381.80
2019-03-17T17:01:05.090Z,99386.18
2019-03-17T17:03:36.692Z,99395.67
2019-03-17T17:06:08.379Z,99394.91
2019-03-17T17:08:41.321Z,99414.72
2019-03-17T17:11:13.998Z,99416.66
2019-03-17T17:13:45.590Z,99455.94
2019-03-17T17:16:17.481Z,99467.16
2019-03-17T17:18:49.602Z,99469.63
2019-03-17T17:21:21.455Z,99463.28
2019-03-17T17:23:53.235Z,99473.84
2019-03-17T17:26:36.383Z,99495.67
2019-03-17T17:28:58.969Z,99501.67
2019-03-17T17:31:30.571Z,99517.50
2019-03-17T17:34:02.174Z,99517.96
2019-03-17T17:36:34.449Z,99539.88
2019-03-17T17:39:08.763Z,99546.03
2019-03-17T17:41:41.057Z,99578.88
2019-03-17T17:44:12.849Z,99599.88
2019-03-17T17:46:44.388Z,99636.83
2019-03-17T17:49:15.918Z,99627.26
2019-03-17T17:51:47.476Z,99613.84
2019-03-17T17:54:18.995Z,99644.67
2019-03-17T17:56:50.583Z,99609.48
2019-03-17T17:59:22.200Z,99631.67
2019-03-17T18:01:53.853Z,99623.20
2019-03-17T18:04:25.540Z,99629.25
2019-03-17T18:06:57.064Z,99633.10
2019-03-17T18:09:28.602Z,99632.91
2019-03-17T18:12:00.200Z,99641.88
2019-03-17T18:14:32.256Z,99647.44
2019-03-17T18:17:03.810Z,99656.28
2019-03-17T18:19:35.583Z,99661.59
2019-03-17T18:22:09.833Z,99664.77
2019-03-17T18:24:40.330Z,99643.41
2019-03-17T18:27:11.914Z,99652.04
2019-03-17T18:29:44.504Z,99676.23
2019-03-17T18:32:16.355Z,99671.47
2019-03-17T18:34:50.518Z,99649.66
2019-03-17T18:37:21.448Z,99669.30
2019-03-17T18:39:53.467Z,99671.69
2019-03-17T18:42:33.089Z,99688.36
2019-03-17T18:44:58.381Z,99668.56
2019-03-17T18:47:30.244Z,99695.92
2019-03-17T18:50:01.857Z,99713.16
2019-03-17T18:52:36.960Z,99712.95
2019-03-17T18:55:10.939Z,99738.58
2019-03-17T18:57:46.966Z,99737.88
2019-03-17T19:00:22.966Z,99743.89
2019-03-17T19:02:54.671Z,99752.28
2019-03-17T19:05:26.263Z,99772.89
2019-03-17T19:07:58.211Z,99779.84
2019-03-17T19:10:31.862Z,99770.79
2019-03-17T19:13:04.171Z,99772.83
2019-03-17T19:15:36.088Z,99779.88
2019-03-17T19:18:07.849Z,99786.45
2019-03-17T19:20:44.697Z,99798.08
2019-03-17T19:23:16.317Z,99794.07
2019-03-17T19:25:48.109Z,99801.46
2019-03-17T19:28:19.964Z,99797.44
2019-03-17T19:30:52.215Z,99792.16
2019-03-17T19:33:24.630Z,99786.39
2019-03-17T19:35:59.449Z,99768.53
2019-03-17T19:38:34.967Z,99777.30
2019-03-17T19:41:11.408Z,99775.61
2019-03-17T19:43:43.519Z,99788.17
2019-03-17T19:46:15.432Z,99789.45
2019-03-17T19:48:47.086Z,99792.88
2019-03-17T19:51:19.110Z,99798.89
2019-03-17T19:53:50.922Z,99806.64
2019-03-17T19:56:24.108Z,99807.25
2019-03-17T19:58:55.753Z,99806.12
2019-03-17T20:01:29.001Z,99807.65
2019-03-17T20:04:00.565Z,99818.59
2019-03-17T20:06:32.205Z,99838.39
2019-03-17T20:09:05.874Z,99851.56
2019-03-17T20:11:37.551Z,99850.48
2019-03-17T20:14:13.334Z,99846.20
2019-03-17T20:16:44.994Z,99854.70
2019-03-17T20:19:16.721Z,99849.68
2019-03-17T20:21:48.438Z,99849.68
2019-03-17T20:24:20.254Z,99844.16
2019-03-17T20:26:52.231Z,99844.31
2019-03-17T20:29:23.832Z,99859.42
2019-03-17T20:31:55.415Z,99851.02
2019-03-17T20:34:27.006Z,99849.93
2019-03-17T20:36:58.619Z,99836.45
2019-03-17T20:39:30.458Z,99834.22
2019-03-17T20:42:03.562Z,99829.67
2019-03-17T20:44:35.520Z,99830.47
2019-03-17T20:47:10.233Z,99830.27
2019-03-17T20:49:42.087Z,99831.41
2019-03-17T20:52:13.677Z,99820.51
2019-03-17T20:54:45.215Z,99811.56
2019-03-17T20:57:17.033Z,99816.08
2019-03-17T20:59:48.559Z,99804.24
2019-03-17T21:02:20.263Z,99802.35
2019-03-17T21:04:51.770Z,99811.84
2019-03-17T21:07:23.427Z,99804.24
2019-03-17T21:09:55.220Z,99781.96
2019-03-17T21:12:26.723Z,99782.51
2019-03-17T21:14:59.325Z,99797.62
2019-03-17T21:17:31.191Z,99806.68
2019-03-17T21:20:03.027Z,99806.84
2019-03-17T21:22:34.595Z,99822.00
2019-03-17T21:25:07.941Z,99831.70
2019-03-17T21:27:39.551Z,99829.38
2019-03-17T21:30:27.227Z,99840.52
2019-03-17T21:32:58.997Z,99850.27
2019-03-17T21:35:30.916Z,99860.87
2019-03-17T21:38:04.285Z,99870.56
2019-03-17T21:40:35.997Z,99883.09
2019-03-17T21:43:09.275Z,99877.42
2019-03-17T21:45:42.466Z,99879.07
2019-03-17T21:48:14.099Z,99878.42
2019-03-17T21:50:45.894Z,99886.87
2019-03-17T21:53:17.614Z,99897.75
2019-03-17T21:55:49.310Z,99895.18
2019-03-17T21:58:20.986Z,99889.70
2019-03-17T22:00:54.363Z,99895.52
2019-03-17T22:03:26.267Z,99899.89
2019-03-17T22:05:58.004Z,99906.61
2019-03-17T22:08:30.054Z,99908.09
2019-03-17T22:11:01.693Z,99911.02
2019-03-17T22:13:34.327Z,99915.64
2019-03-17T22:16:05.845Z,99921.01
2019-03-17T22:18:38.448Z,99935.52
2019-03-17T22:21:10.218Z,99939.86
2019-03-17T22:23:41.909Z,99935.56
2019-03-17T22:26:16.394Z,99931.54
2019-03-17T22:28:48.036Z,99944.83
2019-03-17T22:31:19.670Z,99945.23
2019-03-17T22:33:51.410Z,99947.91
2019-03-17T22:36:23.070Z,99950.66
2019-03-17T22:38:54.655Z,99954.22
2019-03-17T22:41:26.228Z,99955.97
2019-03-17T22:43:58.006Z,99961.70
2019-03-17T22:46:29.539Z,99959.19
2019-03-17T22:49:01.127Z,99968.98
2019-03-17T22:51:32.721Z,99972.82
2019-03-17T22:54:04.317Z,99968.30
2019-03-17T22:56:35.904Z,99966.97
2019-03-17T22:59:07.723Z,99962.37
2019-03-17T23:01:39.379Z,99955.48
2019-03-17T23:04:11.390Z,99964.16
2019-03-17T23:06:43.066Z,99964.02
2019-03-17T23:09:14.668Z,99962.33
2019-03-17T23:11:46.259Z,99954.95
2019-03-17T23:14:17.859Z,99957.45
2019-03-17T23:16:49.482Z,99960.63
2019-03-17T23:19:21.108Z,99970.42
2019-03-17T23:21:52.671Z,99969.92
2019-03-17T23:24:24.455Z,99971.66
2019-03-17T23:26:56.122Z,99970.99
2019-03-17T23:29:27.729Z,99984.81
2019-03-17T23:31:59.252Z,99980.52
2019-03-17T23:34:31.231Z,99990.27
2019-03-17T23:37:02.806Z,99996.34
2019-03-17T23:39:35.414Z,100005.74
2019-03-17T23:42:07.402Z,100013.88
2019-03-17T23:44:48.549Z,100019.44
2019-03-17T23:47:12.297Z,100010.04
2019-03-17T23:49:45.066Z,100017.95
2019-03-17T23:52:16.714Z,100013.13
2019-03-17T23:54:48.247Z,100014.88
2019-03-17T23:57:19.800Z,100019.56
2019-03-17T23:59:51.555Z,100008.48
